TGW661 VTSM-WSSS
Flight info
| Callsign | TGW661 |
|---|---|
| Flight time | 1h 30m |
| Altitude | 37000 |
| Route | RUMVA1A RUMVA Y95 IKOGA Y24 PASVA Y514 NUFFA DCT PIBAP DCT PASPU DCT NYLON DCT POSUB DCT SANAT |
| Aircraft | A320/M-SDFGHIRWYZ/LB1 |
Departure
| Time | 2026-05-04 14:11 |
|---|---|
| Airport | Samui International Airport (VTSM) |
Arrival
| Time | 2026-05-04 15:41 |
|---|---|
| Airport | Singapore Changi Airport (WSSS) |
| Time | Latitude | Longitude | Altitude | Speed | Heading |
|---|---|---|---|---|---|
| 2026-05-04 13:32 | 9.55019 | 100.06347 | 50 ft | 0 kts | 84° |
| 2026-05-04 14:03 | 9.55019 | 100.06327 | 50 ft | 4 kts | 113° |
| 2026-05-04 14:03 | 9.55035 | 100.06309 | 51 ft | 4 kts | 162° |
| 2026-05-04 14:04 | 9.55082 | 100.06303 | 50 ft | 0 kts | 174° |
| 2026-05-04 14:06 | 9.55063 | 100.06305 | 53 ft | 4 kts | 174° |
| 2026-05-04 14:06 | 9.55025 | 100.06301 | 50 ft | 7 kts | 206° |
| 2026-05-04 14:07 | 9.55007 | 100.06256 | 53 ft | 8 kts | 269° |
| 2026-05-04 14:07 | 9.55049 | 100.06220 | 53 ft | 10 kts | 352° |
| 2026-05-04 14:07 | 9.55127 | 100.06212 | 51 ft | 13 kts | 355° |
| 2026-05-04 14:07 | 9.55224 | 100.06204 | 53 ft | 16 kts | 355° |
| 2026-05-04 14:08 | 9.55341 | 100.06193 | 50 ft | 18 kts | 353° |
| 2026-05-04 14:08 | 9.55470 | 100.06180 | 53 ft | 20 kts | 355° |
| 2026-05-04 14:08 | 9.55586 | 100.06170 | 53 ft | 10 kts | 359° |
| 2026-05-04 14:08 | 9.55657 | 100.06184 | 53 ft | 8 kts | 14° |
| 2026-05-04 14:09 | 9.55655 | 100.06162 | 50 ft | 9 kts | 172° |
| 2026-05-04 14:09 | 9.55609 | 100.06166 | 51 ft | 0 kts | 175° |
| 2026-05-04 14:10 | 9.55584 | 100.06168 | 53 ft | 1 kts | 175° |
| 2026-05-04 14:10 | 9.55561 | 100.06170 | 50 ft | 7 kts | 175° |
| 2026-05-04 14:10 | 9.55223 | 100.06205 | 51 ft | 99 kts | 175° |
| 2026-05-04 14:10 | 9.54256 | 100.06298 | 72 ft | 172 kts | 172° |
| 2026-05-04 14:11 | 9.53085 | 100.06429 | 1024 ft | 168 kts | 169° |
| 2026-05-04 14:11 | 9.50796 | 100.07273 | 2516 ft | 188 kts | 155° |
| 2026-05-04 14:11 | 9.49523 | 100.07831 | 2835 ft | 210 kts | 155° |
| 2026-05-04 14:12 | 9.48147 | 100.08428 | 3519 ft | 216 kts | 155° |
| 2026-05-04 14:12 | 9.46755 | 100.09026 | 4349 ft | 219 kts | 152° |
| 2026-05-04 14:12 | 9.44301 | 100.11167 | 5426 ft | 256 kts | 134° |
| 2026-05-04 14:13 | 9.43031 | 100.12455 | 6133 ft | 266 kts | 133° |
| 2026-05-04 14:13 | 9.41708 | 100.13790 | 6990 ft | 271 kts | 134° |
| 2026-05-04 14:13 | 9.40357 | 100.15147 | 7817 ft | 275 kts | 134° |
| 2026-05-04 14:13 | 9.38984 | 100.16520 | 8666 ft | 279 kts | 134° |
| 2026-05-04 14:14 | 9.37593 | 100.17908 | 9505 ft | 283 kts | 134° |
| 2026-05-04 14:14 | 9.34681 | 100.20815 | 10470 ft | 314 kts | 134° |
| 2026-05-04 14:14 | 9.33076 | 100.22415 | 10781 ft | 331 kts | 134° |
| 2026-05-04 14:15 | 9.29730 | 100.25745 | 12053 ft | 341 kts | 134° |
| 2026-05-04 14:15 | 9.26057 | 100.28839 | 13384 ft | 350 kts | 140° |
| 2026-05-04 14:16 | 9.22161 | 100.31907 | 14584 ft | 357 kts | 140° |
| 2026-05-04 14:16 | 9.20192 | 100.33462 | 15157 ft | 361 kts | 140° |
| 2026-05-04 14:17 | 9.16202 | 100.36610 | 16289 ft | 368 kts | 140° |
| 2026-05-04 14:17 | 9.14166 | 100.38217 | 16856 ft | 372 kts | 140° |
| 2026-05-04 14:17 | 9.10045 | 100.41471 | 17979 ft | 379 kts | 140° |
| 2026-05-04 14:18 | 9.07950 | 100.43119 | 18491 ft | 383 kts | 141° |
| 2026-05-04 14:18 | 9.03719 | 100.46455 | 19481 ft | 390 kts | 141° |
| 2026-05-04 14:19 | 8.99405 | 100.49855 | 20496 ft | 397 kts | 141° |
| 2026-05-04 14:19 | 8.97218 | 100.51579 | 21006 ft | 400 kts | 141° |
| 2026-05-04 14:19 | 8.95007 | 100.53321 | 21513 ft | 403 kts | 141° |
| 2026-05-04 14:19 | 8.92776 | 100.55080 | 22019 ft | 407 kts | 141° |
| 2026-05-04 14:20 | 8.90539 | 100.56846 | 22511 ft | 410 kts | 141° |
| 2026-05-04 14:20 | 8.88282 | 100.58628 | 22981 ft | 413 kts | 141° |
| 2026-05-04 14:20 | 8.86027 | 100.60401 | 23449 ft | 416 kts | 141° |
| 2026-05-04 14:21 | 8.81409 | 100.64021 | 24206 ft | 422 kts | 141° |
| 2026-05-04 14:21 | 8.79082 | 100.65844 | 24586 ft | 424 kts | 141° |
| 2026-05-04 14:21 | 8.76735 | 100.67683 | 24955 ft | 427 kts | 141° |
| 2026-05-04 14:21 | 8.74382 | 100.69528 | 25324 ft | 429 kts | 141° |
| 2026-05-04 14:22 | 8.72018 | 100.71382 | 25694 ft | 431 kts | 141° |
| 2026-05-04 14:22 | 8.69664 | 100.73226 | 26040 ft | 434 kts | 141° |
| 2026-05-04 14:22 | 8.67266 | 100.75105 | 26398 ft | 436 kts | 141° |
| 2026-05-04 14:22 | 8.64861 | 100.76991 | 26739 ft | 439 kts | 141° |
| 2026-05-04 14:23 | 8.60013 | 100.80796 | 27399 ft | 444 kts | 141° |
| 2026-05-04 14:23 | 8.57554 | 100.82724 | 27722 ft | 446 kts | 141° |
| 2026-05-04 14:23 | 8.55093 | 100.84650 | 28040 ft | 449 kts | 141° |
| 2026-05-04 14:24 | 8.52625 | 100.86581 | 28348 ft | 451 kts | 141° |
| 2026-05-04 14:24 | 8.50129 | 100.88537 | 28674 ft | 454 kts | 141° |
| 2026-05-04 14:24 | 8.47656 | 100.90475 | 28992 ft | 457 kts | 141° |
| 2026-05-04 14:24 | 8.45137 | 100.92448 | 29315 ft | 459 kts | 141° |
| 2026-05-04 14:25 | 8.42595 | 100.94438 | 29646 ft | 462 kts | 141° |
| 2026-05-04 14:25 | 8.37478 | 100.98440 | 30218 ft | 467 kts | 141° |
| 2026-05-04 14:25 | 8.34904 | 101.00454 | 30500 ft | 469 kts | 141° |
| 2026-05-04 14:26 | 8.32344 | 101.02460 | 30777 ft | 470 kts | 141° |
| 2026-05-04 14:26 | 8.29750 | 101.04496 | 31053 ft | 471 kts | 141° |
| 2026-05-04 14:26 | 8.27141 | 101.06541 | 31333 ft | 472 kts | 141° |
| 2026-05-04 14:26 | 8.24542 | 101.08572 | 31730 ft | 470 kts | 141° |
| 2026-05-04 14:27 | 8.21957 | 101.10586 | 32140 ft | 469 kts | 141° |
| 2026-05-04 14:27 | 8.19415 | 101.12570 | 32546 ft | 467 kts | 141° |
| 2026-05-04 14:27 | 8.16836 | 101.14584 | 32970 ft | 465 kts | 141° |
| 2026-05-04 14:27 | 8.14282 | 101.16584 | 33400 ft | 463 kts | 141° |
| 2026-05-04 14:28 | 8.11729 | 101.18585 | 33848 ft | 462 kts | 141° |
| 2026-05-04 14:28 | 8.09222 | 101.20550 | 34231 ft | 460 kts | 141° |
| 2026-05-04 14:28 | 8.06691 | 101.22531 | 34594 ft | 459 kts | 141° |
| 2026-05-04 14:28 | 8.04157 | 101.24510 | 34944 ft | 458 kts | 141° |
| 2026-05-04 14:29 | 7.99148 | 101.28417 | 35627 ft | 457 kts | 141° |
| 2026-05-04 14:29 | 7.94112 | 101.32350 | 36277 ft | 456 kts | 141° |
| 2026-05-04 14:30 | 7.91601 | 101.34313 | 36600 ft | 456 kts | 141° |
| 2026-05-04 14:30 | 7.89083 | 101.36279 | 36852 ft | 457 kts | 141° |
| 2026-05-04 14:31 | 7.81556 | 101.42151 | 36917 ft | 456 kts | 141° |
| 2026-05-04 14:32 | 7.71532 | 101.49964 | 36914 ft | 456 kts | 141° |
| 2026-05-04 14:32 | 7.66464 | 101.53749 | 36916 ft | 456 kts | 148° |
| 2026-05-04 14:33 | 7.60637 | 101.56340 | 36919 ft | 458 kts | 158° |
| 2026-05-04 14:33 | 7.54663 | 101.58612 | 36923 ft | 458 kts | 158° |
| 2026-05-04 14:34 | 7.48724 | 101.60873 | 36922 ft | 459 kts | 158° |
| 2026-05-04 14:34 | 7.42732 | 101.63151 | 36920 ft | 459 kts | 158° |
| 2026-05-04 14:35 | 7.36751 | 101.65430 | 36924 ft | 459 kts | 158° |
| 2026-05-04 14:35 | 7.30799 | 101.67696 | 36929 ft | 460 kts | 158° |
| 2026-05-04 14:36 | 7.24825 | 101.69965 | 36929 ft | 460 kts | 158° |
| 2026-05-04 14:36 | 7.18825 | 101.72240 | 36931 ft | 460 kts | 158° |
| 2026-05-04 14:37 | 7.12818 | 101.74523 | 36936 ft | 460 kts | 158° |
| 2026-05-04 14:37 | 7.06845 | 101.76797 | 36936 ft | 460 kts | 158° |
| 2026-05-04 14:38 | 7.00843 | 101.79081 | 36937 ft | 460 kts | 158° |
| 2026-05-04 14:38 | 6.94840 | 101.81356 | 36936 ft | 460 kts | 158° |
| 2026-05-04 14:39 | 6.88874 | 101.83615 | 36936 ft | 460 kts | 158° |
| 2026-05-04 14:39 | 6.82879 | 101.85893 | 36935 ft | 460 kts | 158° |
| 2026-05-04 14:40 | 6.73927 | 101.89294 | 36933 ft | 460 kts | 158° |
| 2026-05-04 14:40 | 6.67936 | 101.91568 | 36931 ft | 460 kts | 158° |
| 2026-05-04 14:41 | 6.61971 | 101.93830 | 36931 ft | 460 kts | 158° |
| 2026-05-04 14:42 | 6.50001 | 101.98364 | 36929 ft | 460 kts | 158° |
| 2026-05-04 14:42 | 6.45012 | 102.00250 | 36929 ft | 460 kts | 158° |
| 2026-05-04 14:43 | 6.39015 | 102.02523 | 36926 ft | 460 kts | 158° |
| 2026-05-04 14:43 | 6.33040 | 102.04786 | 36922 ft | 460 kts | 158° |
| 2026-05-04 14:44 | 6.27037 | 102.07058 | 36918 ft | 460 kts | 158° |
| 2026-05-04 14:44 | 6.21026 | 102.09214 | 36915 ft | 461 kts | 161° |
| 2026-05-04 14:45 | 6.14915 | 102.11180 | 36913 ft | 461 kts | 161° |
| 2026-05-04 14:45 | 6.08776 | 102.13123 | 36915 ft | 461 kts | 161° |
| 2026-05-04 14:46 | 6.02668 | 102.15115 | 36915 ft | 461 kts | 161° |
| 2026-05-04 14:46 | 5.96567 | 102.17135 | 36919 ft | 461 kts | 161° |
| 2026-05-04 14:47 | 5.90480 | 102.19147 | 36923 ft | 461 kts | 161° |
| 2026-05-04 14:47 | 5.84379 | 102.21152 | 36924 ft | 461 kts | 161° |
| 2026-05-04 14:48 | 5.78256 | 102.23165 | 36926 ft | 461 kts | 161° |
| 2026-05-04 14:48 | 5.72193 | 102.25214 | 36926 ft | 461 kts | 159° |
| 2026-05-04 14:49 | 5.66216 | 102.27575 | 36927 ft | 461 kts | 156° |
| 2026-05-04 14:49 | 5.60285 | 102.30056 | 36924 ft | 461 kts | 156° |
| 2026-05-04 14:50 | 5.54366 | 102.32474 | 36927 ft | 461 kts | 158° |
| 2026-05-04 14:50 | 5.48382 | 102.34854 | 36929 ft | 461 kts | 158° |
| 2026-05-04 14:51 | 5.42435 | 102.37213 | 36930 ft | 461 kts | 158° |
| 2026-05-04 14:51 | 5.36458 | 102.39606 | 36931 ft | 462 kts | 158° |
| 2026-05-04 14:52 | 5.30485 | 102.41998 | 36930 ft | 462 kts | 158° |
| 2026-05-04 14:52 | 5.24543 | 102.44375 | 36932 ft | 462 kts | 158° |
| 2026-05-04 14:53 | 5.18892 | 102.46628 | 36935 ft | 462 kts | 158° |
| 2026-05-04 14:53 | 5.12945 | 102.49002 | 36934 ft | 462 kts | 158° |
| 2026-05-04 14:54 | 5.06989 | 102.51370 | 36933 ft | 461 kts | 158° |
| 2026-05-04 14:54 | 5.01003 | 102.53759 | 36935 ft | 462 kts | 158° |
| 2026-05-04 14:55 | 4.95021 | 102.56150 | 36933 ft | 462 kts | 158° |
| 2026-05-04 14:55 | 4.89067 | 102.58518 | 36934 ft | 462 kts | 158° |
| 2026-05-04 14:56 | 4.83516 | 102.60735 | 36935 ft | 462 kts | 158° |
| 2026-05-04 14:56 | 4.77622 | 102.63091 | 36935 ft | 461 kts | 158° |
| 2026-05-04 14:57 | 4.71597 | 102.65494 | 36936 ft | 461 kts | 158° |
| 2026-05-04 14:57 | 4.65619 | 102.67876 | 36935 ft | 461 kts | 158° |
| 2026-05-04 14:58 | 4.59651 | 102.70248 | 36929 ft | 461 kts | 158° |
| 2026-05-04 14:58 | 4.53693 | 102.72623 | 36929 ft | 461 kts | 158° |
| 2026-05-04 14:59 | 4.47758 | 102.74990 | 36927 ft | 461 kts | 158° |
| 2026-05-04 15:00 | 4.38847 | 102.78529 | 36920 ft | 461 kts | 158° |
| 2026-05-04 15:00 | 4.32888 | 102.80903 | 36914 ft | 461 kts | 158° |
| 2026-05-04 15:01 | 4.23939 | 102.84463 | 36918 ft | 461 kts | 158° |
| 2026-05-04 15:01 | 4.17982 | 102.86842 | 36912 ft | 461 kts | 158° |
| 2026-05-04 15:02 | 4.12024 | 102.89213 | 36909 ft | 461 kts | 158° |
| 2026-05-04 15:02 | 4.06058 | 102.91583 | 36900 ft | 461 kts | 158° |
| 2026-05-04 15:03 | 4.00122 | 102.93942 | 36895 ft | 461 kts | 158° |
| 2026-05-04 15:03 | 3.94149 | 102.96320 | 36894 ft | 460 kts | 158° |
| 2026-05-04 15:04 | 3.88232 | 102.98674 | 36897 ft | 460 kts | 158° |
| 2026-05-04 15:04 | 3.82266 | 103.01040 | 36899 ft | 460 kts | 158° |
| 2026-05-04 15:05 | 3.76302 | 103.03410 | 36901 ft | 460 kts | 157° |
| 2026-05-04 15:05 | 3.70376 | 103.05768 | 36900 ft | 460 kts | 157° |
| 2026-05-04 15:06 | 3.64411 | 103.08144 | 36903 ft | 460 kts | 157° |
| 2026-05-04 15:07 | 3.55506 | 103.11680 | 36907 ft | 459 kts | 157° |
| 2026-05-04 15:07 | 3.49602 | 103.14026 | 36906 ft | 459 kts | 157° |
| 2026-05-04 15:08 | 3.43649 | 103.16392 | 36910 ft | 458 kts | 157° |
| 2026-05-04 15:08 | 3.37737 | 103.18735 | 36917 ft | 458 kts | 157° |
| 2026-05-04 15:09 | 3.31817 | 103.21137 | 36923 ft | 457 kts | 152° |
| 2026-05-04 15:09 | 3.26656 | 103.24776 | 36924 ft | 453 kts | 134° |
| 2026-05-04 15:10 | 3.20208 | 103.31630 | 36929 ft | 453 kts | 132° |
| 2026-05-04 15:11 | 3.13698 | 103.38505 | 36934 ft | 453 kts | 132° |
| 2026-05-04 15:11 | 3.09361 | 103.43098 | 36935 ft | 452 kts | 132° |
| 2026-05-04 15:12 | 3.05055 | 103.47669 | 36940 ft | 452 kts | 132° |
| 2026-05-04 15:12 | 3.00753 | 103.52223 | 36946 ft | 452 kts | 133° |
| 2026-05-04 15:13 | 2.96430 | 103.56796 | 36948 ft | 452 kts | 133° |
| 2026-05-04 15:13 | 2.92102 | 103.61372 | 36953 ft | 452 kts | 133° |
| 2026-05-04 15:14 | 2.87824 | 103.65983 | 36953 ft | 451 kts | 130° |
| 2026-05-04 15:14 | 2.83779 | 103.70789 | 36953 ft | 450 kts | 128° |
| 2026-05-04 15:15 | 2.79844 | 103.75637 | 36954 ft | 450 kts | 129° |
| 2026-05-04 15:15 | 2.75843 | 103.80474 | 36954 ft | 450 kts | 129° |
| 2026-05-04 15:16 | 2.69809 | 103.87642 | 36946 ft | 450 kts | 129° |
| 2026-05-04 15:17 | 2.63746 | 103.94862 | 36945 ft | 451 kts | 129° |
| 2026-05-04 15:17 | 2.57724 | 104.02052 | 36943 ft | 451 kts | 129° |
| 2026-05-04 15:18 | 2.53500 | 104.06692 | 36880 ft | 452 kts | 140° |
| 2026-05-04 15:18 | 2.50913 | 104.08472 | 36625 ft | 452 kts | 151° |
| 2026-05-04 15:19 | 2.44916 | 104.10411 | 35327 ft | 459 kts | 173° |
| 2026-05-04 15:19 | 2.41706 | 104.10515 | 34409 ft | 466 kts | 179° |
| 2026-05-04 15:19 | 2.35186 | 104.10482 | 32377 ft | 474 kts | 179° |
| 2026-05-04 15:20 | 2.31899 | 104.10483 | 31782 ft | 468 kts | 179° |
| 2026-05-04 15:20 | 2.28659 | 104.10487 | 31159 ft | 464 kts | 179° |
| 2026-05-04 15:20 | 2.25439 | 104.10494 | 30513 ft | 461 kts | 179° |
| 2026-05-04 15:20 | 2.22238 | 104.10499 | 29842 ft | 459 kts | 179° |
| 2026-05-04 15:21 | 2.19098 | 104.10500 | 29168 ft | 455 kts | 179° |
| 2026-05-04 15:21 | 2.15917 | 104.10500 | 28533 ft | 450 kts | 178° |
| 2026-05-04 15:21 | 2.09748 | 104.10501 | 27341 ft | 440 kts | 178° |
| 2026-05-04 15:22 | 2.06726 | 104.10495 | 27194 ft | 425 kts | 178° |
| 2026-05-04 15:22 | 2.03811 | 104.10492 | 27073 ft | 412 kts | 178° |
| 2026-05-04 15:22 | 1.98259 | 104.10307 | 26828 ft | 393 kts | 190° |
| 2026-05-04 15:23 | 1.95646 | 104.09569 | 26710 ft | 384 kts | 195° |
| 2026-05-04 15:23 | 1.93155 | 104.08806 | 26564 ft | 364 kts | 195° |
| 2026-05-04 15:23 | 1.90758 | 104.08068 | 26181 ft | 352 kts | 195° |
| 2026-05-04 15:23 | 1.88432 | 104.07355 | 25651 ft | 347 kts | 194° |
| 2026-05-04 15:24 | 1.83879 | 104.05966 | 24533 ft | 340 kts | 194° |
| 2026-05-04 15:24 | 1.79396 | 104.04599 | 23436 ft | 335 kts | 194° |
| 2026-05-04 15:25 | 1.77166 | 104.03921 | 22803 ft | 332 kts | 194° |
| 2026-05-04 15:25 | 1.74957 | 104.03250 | 22192 ft | 329 kts | 194° |
| 2026-05-04 15:25 | 1.72769 | 104.02586 | 21623 ft | 326 kts | 194° |
| 2026-05-04 15:26 | 1.68372 | 104.01257 | 19696 ft | 344 kts | 194° |
| 2026-05-04 15:26 | 1.66027 | 104.00548 | 18524 ft | 356 kts | 194° |
| 2026-05-04 15:26 | 1.61157 | 103.99071 | 15701 ft | 377 kts | 195° |
| 2026-05-04 15:27 | 1.59446 | 103.98551 | 14680 ft | 383 kts | 196° |
| 2026-05-04 15:27 | 1.54350 | 103.96994 | 12474 ft | 371 kts | 196° |
| 2026-05-04 15:28 | 1.49786 | 103.95595 | 11986 ft | 319 kts | 196° |
| 2026-05-04 15:28 | 1.47712 | 103.94963 | 11749 ft | 304 kts | 196° |
| 2026-05-04 15:28 | 1.43746 | 103.93757 | 11273 ft | 294 kts | 196° |
| 2026-05-04 15:29 | 1.41808 | 103.93154 | 11035 ft | 289 kts | 198° |
| 2026-05-04 15:30 | 1.34532 | 103.90294 | 10134 ft | 274 kts | 202° |
| 2026-05-04 15:30 | 1.29361 | 103.88225 | 9736 ft | 261 kts | 202° |
| 2026-05-04 15:31 | 1.26011 | 103.86899 | 9476 ft | 259 kts | 202° |
| 2026-05-04 15:31 | 1.24339 | 103.86240 | 9350 ft | 259 kts | 202° |
| 2026-05-04 15:32 | 1.20362 | 103.82814 | 8967 ft | 256 kts | 234° |
| 2026-05-04 15:32 | 1.17700 | 103.80530 | 8417 ft | 259 kts | 199° |
| 2026-05-04 15:33 | 1.14137 | 103.80484 | 7730 ft | 262 kts | 173° |
| 2026-05-04 15:34 | 1.09416 | 103.81857 | 6983 ft | 229 kts | 130° |
| 2026-05-04 15:34 | 1.08711 | 103.83275 | 6655 ft | 229 kts | 101° |
| 2026-05-04 15:34 | 1.09303 | 103.86446 | 5867 ft | 235 kts | 54° |
| 2026-05-04 15:35 | 1.12023 | 103.88028 | 5009 ft | 242 kts | 17° |
| 2026-05-04 15:35 | 1.13657 | 103.88634 | 4320 ft | 252 kts | 22° |
| 2026-05-04 15:35 | 1.15199 | 103.89378 | 4018 ft | 240 kts | 24° |
| 2026-05-04 15:36 | 1.18127 | 103.90666 | 3440 ft | 219 kts | 21° |
| 2026-05-04 15:36 | 1.19486 | 103.91239 | 3170 ft | 209 kts | 22° |
| 2026-05-04 15:36 | 1.20771 | 103.91781 | 2939 ft | 190 kts | 22° |
| 2026-05-04 15:37 | 1.21935 | 103.92272 | 2696 ft | 171 kts | 22° |
| 2026-05-04 15:37 | 1.22981 | 103.92714 | 2480 ft | 154 kts | 22° |
| 2026-05-04 15:37 | 1.23922 | 103.93111 | 2290 ft | 142 kts | 22° |
| 2026-05-04 15:37 | 1.24818 | 103.93490 | 2109 ft | 137 kts | 22° |
| 2026-05-04 15:38 | 1.25688 | 103.93857 | 1939 ft | 135 kts | 22° |
| 2026-05-04 15:38 | 1.26548 | 103.94220 | 1772 ft | 134 kts | 23° |
| 2026-05-04 15:38 | 1.27404 | 103.94581 | 1577 ft | 135 kts | 23° |
| 2026-05-04 15:38 | 1.28275 | 103.94949 | 1395 ft | 136 kts | 23° |
| 2026-05-04 15:39 | 1.29147 | 103.95317 | 1224 ft | 136 kts | 23° |
| 2026-05-04 15:39 | 1.30016 | 103.95684 | 1045 ft | 135 kts | 23° |
| 2026-05-04 15:39 | 1.31740 | 103.96412 | 725 ft | 134 kts | 22° |
| 2026-05-04 15:40 | 1.32595 | 103.96772 | 567 ft | 133 kts | 22° |
| 2026-05-04 15:40 | 1.33436 | 103.97124 | 395 ft | 133 kts | 21° |
| 2026-05-04 15:40 | 1.34285 | 103.97489 | 200 ft | 132 kts | 21° |
| 2026-05-04 15:40 | 1.35132 | 103.97845 | 60 ft | 132 kts | 21° |
| 2026-05-04 15:41 | 1.35905 | 103.98168 | 32 ft | 100 kts | 24° |
| 2026-05-04 15:41 | 1.36317 | 103.98342 | 33 ft | 46 kts | 22° |
| 2026-05-04 15:41 | 1.36533 | 103.98433 | 32 ft | 19 kts | 23° |
| 2026-05-04 15:41 | 1.36661 | 103.98521 | 33 ft | 24 kts | 45° |
| 2026-05-04 15:42 | 1.36745 | 103.98626 | 32 ft | 18 kts | 53° |
| 2026-05-04 15:42 | 1.36798 | 103.98696 | 33 ft | 8 kts | 53° |
| 2026-05-04 15:42 | 1.36835 | 103.98755 | 33 ft | 10 kts | 72° |
| 2026-05-04 15:42 | 1.36823 | 103.98809 | 33 ft | 10 kts | 112° |
| 2026-05-04 15:43 | 1.36800 | 103.98866 | 33 ft | 10 kts | 112° |
| 2026-05-04 15:43 | 1.36767 | 103.98943 | 33 ft | 14 kts | 112° |
| 2026-05-04 15:43 | 1.36739 | 103.99010 | 33 ft | 11 kts | 113° |
| 2026-05-04 15:43 | 1.36709 | 103.99079 | 33 ft | 10 kts | 113° |
| 2026-05-04 15:44 | 1.36677 | 103.99153 | 33 ft | 13 kts | 114° |
| 2026-05-04 15:44 | 1.36636 | 103.99247 | 32 ft | 14 kts | 113° |
| 2026-05-04 15:44 | 1.36604 | 103.99311 | 31 ft | 9 kts | 134° |
| 2026-05-04 15:44 | 1.36556 | 103.99313 | 33 ft | 6 kts | 223° |
| 2026-05-04 15:45 | 1.36537 | 103.99292 | 33 ft | 3 kts | 203° |
| 2026-05-04 15:45 | 1.36509 | 103.99305 | 33 ft | 6 kts | 140° |
| 2026-05-04 15:45 | 1.36485 | 103.99325 | 33 ft | 5 kts | 143° |
| 2026-05-04 15:45 | 1.36475 | 103.99333 | 33 ft | 3 kts | 142° |
| 2026-05-04 15:46 | 1.36468 | 103.99338 | 33 ft | 0 kts | 142° |